createdAt,value
2023-03-06T00:02:05.838Z,43.54
2023-03-06T00:04:33.568Z,43.38
2023-03-06T00:07:01.306Z,45.48
2023-03-06T00:09:29.047Z,44.74
2023-03-06T00:11:56.785Z,44.37
2023-03-06T00:14:25.934Z,44.48
2023-03-06T00:16:56.390Z,44.10
2023-03-06T00:19:24.935Z,44.65
2023-03-06T00:21:52.746Z,44.71
2023-03-06T00:24:20.569Z,44.42
2023-03-06T00:26:48.323Z,45.00
2023-03-06T00:29:16.331Z,45.65
2023-03-06T00:31:48.004Z,45.41
2023-03-06T00:34:16.266Z,44.81
2023-03-06T00:36:44.025Z,44.60
2023-03-06T00:39:11.818Z,45.00
2023-03-06T00:41:39.676Z,43.95
2023-03-06T00:44:08.016Z,44.67
2023-03-06T00:46:35.823Z,45.50
2023-03-06T00:49:05.135Z,46.02
2023-03-06T00:51:33.005Z,45.45
2023-03-06T00:54:00.768Z,45.55
2023-03-06T00:56:29.983Z,45.27
2023-03-06T00:58:57.731Z,44.78
2023-03-06T01:01:26.478Z,44.10
2023-03-06T01:03:54.205Z,43.31
2023-03-06T01:06:23.473Z,44.88
2023-03-06T01:08:51.224Z,44.93
2023-03-06T01:11:19.036Z,44.67
2023-03-06T01:13:47.005Z,45.00
2023-03-06T01:16:18.715Z,46.09
2023-03-06T01:18:49.954Z,43.92
2023-03-06T01:21:18.159Z,43.92
2023-03-06T01:23:47.468Z,43.28
2023-03-06T01:26:15.398Z,43.11
2023-03-06T01:28:43.145Z,43.40
2023-03-06T01:31:12.102Z,43.78
2023-03-06T01:33:40.085Z,44.45
2023-03-06T01:36:10.589Z,42.71
2023-03-06T01:38:38.391Z,45.25
2023-03-06T01:41:08.319Z,43.04
2023-03-06T01:43:37.627Z,43.32
2023-03-06T01:46:24.102Z,42.43
2023-03-06T01:48:55.682Z,44.58
2023-03-06T01:51:28.151Z,43.30
2023-03-06T01:53:57.867Z,44.39
2023-03-06T01:56:27.265Z,43.95
2023-03-06T01:58:55.104Z,43.86
2023-03-06T02:01:23.312Z,44.26
2023-03-06T02:03:52.027Z,43.30
2023-03-06T02:06:21.801Z,43.80
2023-03-06T02:08:53.014Z,45.02
2023-03-06T02:11:22.425Z,43.69
2023-03-06T02:13:53.761Z,43.89
2023-03-06T02:16:25.320Z,43.75
2023-03-06T02:18:53.857Z,43.34
2023-03-06T02:21:27.872Z,44.38
2023-03-06T02:24:07.493Z,42.99
2023-03-06T02:26:38.440Z,43.46
2023-03-06T02:29:09.804Z,44.87
2023-03-06T02:31:37.640Z,42.60
2023-03-06T02:34:09.268Z,43.06
2023-03-06T02:36:42.717Z,45.44
2023-03-06T02:39:11.474Z,41.92
2023-03-06T02:41:41.298Z,43.79
2023-03-06T02:44:09.583Z,44.06
2023-03-06T02:46:37.318Z,43.03
2023-03-06T02:49:05.085Z,43.68
2023-03-06T02:51:32.956Z,43.35
2023-03-06T02:54:00.702Z,45.15
2023-03-06T02:56:28.603Z,43.39
2023-03-06T02:58:59.262Z,44.25
2023-03-06T03:01:27.111Z,43.71
2023-03-06T03:03:54.931Z,45.19
2023-03-06T03:06:22.698Z,43.23
2023-03-06T03:08:51.492Z,43.80
2023-03-06T03:11:22.255Z,44.03
2023-03-06T03:13:50.039Z,44.76
2023-03-06T03:16:24.519Z,44.56
2023-03-06T03:18:52.401Z,44.28
2023-03-06T03:21:22.892Z,43.38
2023-03-06T03:23:50.766Z,44.63
2023-03-06T03:26:21.134Z,43.59
2023-03-06T03:28:55.732Z,43.31
2023-03-06T03:31:25.060Z,42.67
2023-03-06T03:33:52.988Z,43.50
2023-03-06T03:36:22.214Z,44.55
2023-03-06T03:38:50.364Z,43.90
2023-03-06T03:41:18.127Z,44.97
2023-03-06T03:43:46.844Z,44.59
2023-03-06T03:46:15.070Z,45.50
2023-03-06T03:48:44.797Z,46.12
2023-03-06T03:51:16.640Z,44.60
2023-03-06T03:53:49.291Z,45.28
2023-03-06T03:56:20.542Z,44.83
2023-03-06T03:58:58.842Z,46.49
2023-03-06T04:01:30.292Z,45.06
2023-03-06T04:03:59.516Z,45.05
2023-03-06T04:06:27.415Z,44.74
2023-03-06T04:08:55.183Z,45.16
2023-03-06T04:11:23.095Z,45.90
2023-03-06T04:13:51.168Z,45.16
2023-03-06T04:16:19.611Z,45.84
2023-03-06T04:18:47.477Z,46.81
2023-03-06T04:21:16.666Z,48.03
2023-03-06T04:23:45.351Z,47.98
2023-03-06T04:26:13.348Z,47.17
2023-03-06T04:28:41.086Z,45.32
2023-03-06T04:31:09.340Z,45.17
2023-03-06T04:33:37.408Z,44.31
2023-03-06T04:36:06.065Z,44.89
2023-03-06T04:38:36.054Z,43.60
2023-03-06T04:41:05.982Z,44.38
2023-03-06T04:43:33.814Z,44.48
2023-03-06T04:46:01.608Z,44.32
2023-03-06T04:48:29.354Z,46.13
2023-03-06T04:50:57.095Z,47.33
2023-03-06T04:53:24.818Z,47.78
2023-03-06T04:55:53.921Z,46.38
2023-03-06T04:58:21.798Z,45.96
2023-03-06T05:00:49.795Z,45.40
2023-03-06T05:03:17.588Z,44.78
2023-03-06T05:05:45.356Z,46.03
2023-03-06T05:08:15.260Z,45.37
2023-03-06T05:10:43.082Z,46.63
2023-03-06T05:13:12.296Z,45.46
2023-03-06T05:15:41.964Z,46.80
2023-03-06T05:18:09.766Z,45.95
2023-03-06T05:20:37.517Z,47.05
2023-03-06T05:23:05.343Z,46.03
2023-03-06T05:25:33.092Z,45.53
2023-03-06T05:28:00.819Z,46.78
2023-03-06T05:30:29.901Z,45.51
2023-03-06T05:32:57.612Z,45.77
2023-03-06T05:35:25.744Z,44.15
2023-03-06T05:37:53.502Z,44.24
2023-03-06T05:40:21.625Z,44.37
2023-03-06T05:42:49.461Z,44.94
2023-03-06T05:45:17.369Z,45.25
2023-03-06T05:47:46.772Z,44.72
2023-03-06T05:50:14.974Z,45.64
2023-03-06T05:52:43.112Z,43.87
2023-03-06T05:55:13.383Z,44.80
2023-03-06T05:57:41.355Z,46.42
2023-03-06T06:00:11.512Z,44.00
2023-03-06T06:02:46.441Z,44.11
2023-03-06T06:05:14.724Z,42.61
2023-03-06T06:07:42.994Z,43.21
2023-03-06T06:10:12.586Z,46.04
2023-03-06T06:12:40.356Z,43.80
2023-03-06T06:15:08.940Z,42.87
2023-03-06T06:17:36.726Z,43.07
2023-03-06T06:20:06.613Z,42.32
2023-03-06T06:22:38.073Z,45.66
2023-03-06T06:25:07.371Z,44.48
2023-03-06T06:27:35.232Z,44.66
2023-03-06T06:30:03.152Z,44.78
2023-03-06T06:32:30.925Z,43.39
2023-03-06T06:34:58.874Z,42.85
2023-03-06T06:37:27.982Z,43.20
2023-03-06T06:39:55.824Z,42.81
2023-03-06T06:42:33.174Z,42.53
2023-03-06T06:45:03.213Z,44.07
2023-03-06T06:47:31.000Z,42.58
2023-03-06T06:49:58.938Z,44.21
2023-03-06T06:52:28.149Z,43.40
2023-03-06T06:54:56.172Z,43.00
2023-03-06T06:57:23.924Z,42.97
2023-03-06T06:59:53.718Z,43.53
2023-03-06T07:02:21.903Z,43.53
2023-03-06T07:05:03.005Z,42.35
2023-03-06T07:07:36.451Z,41.72
2023-03-06T07:10:05.545Z,42.67
2023-03-06T07:12:35.000Z,42.67
2023-03-06T07:15:02.831Z,43.56
2023-03-06T07:17:30.780Z,43.49
2023-03-06T07:19:59.504Z,43.23
2023-03-06T07:22:29.080Z,41.75
2023-03-06T07:24:59.633Z,42.05
2023-03-06T07:27:27.784Z,42.61
2023-03-06T07:29:55.600Z,42.66
2023-03-06T07:32:23.440Z,41.84
2023-03-06T07:34:51.258Z,42.19
2023-03-06T07:37:19.126Z,42.58
2023-03-06T07:39:46.875Z,44.18
2023-03-06T07:42:16.386Z,44.05
2023-03-06T07:44:55.139Z,43.16
2023-03-06T07:47:22.888Z,42.25
2023-03-06T07:49:50.769Z,42.81
2023-03-06T07:52:18.574Z,43.71
2023-03-06T07:54:46.336Z,43.12
2023-03-06T07:57:15.817Z,43.55
2023-03-06T07:59:43.566Z,44.92
2023-03-06T08:02:11.860Z,45.39
2023-03-06T08:04:39.717Z,44.06
2023-03-06T08:07:07.499Z,41.49
2023-03-06T08:09:35.681Z,41.82
2023-03-06T08:12:03.533Z,49.93
2023-03-06T08:14:35.611Z,46.61
2023-03-06T08:17:03.621Z,46.93
2023-03-06T08:19:31.454Z,45.99
2023-03-06T08:21:59.381Z,53.77
2023-03-06T08:24:27.229Z,54.63
2023-03-06T08:26:55.129Z,61.18
2023-03-06T08:29:22.944Z,47.62
2023-03-06T08:31:52.196Z,45.12
2023-03-06T08:34:22.169Z,45.14
2023-03-06T08:36:49.983Z,44.65
2023-03-06T08:39:18.241Z,44.99
2023-03-06T08:41:46.135Z,44.40
2023-03-06T08:44:14.095Z,43.70
2023-03-06T08:46:41.907Z,43.98
2023-03-06T08:49:13.784Z,44.35
2023-03-06T08:51:42.424Z,43.20
2023-03-06T08:54:13.265Z,44.42
2023-03-06T08:56:41.084Z,42.36
2023-03-06T08:59:10.447Z,44.78
2023-03-06T09:01:39.017Z,44.88
2023-03-06T09:04:09.647Z,44.20
2023-03-06T09:06:41.358Z,44.71
2023-03-06T09:09:09.390Z,43.66
2023-03-06T09:11:37.452Z,43.01
2023-03-06T09:14:06.049Z,44.34
2023-03-06T09:16:34.268Z,43.04
2023-03-06T09:19:02.098Z,45.14
2023-03-06T09:21:30.003Z,44.70
2023-03-06T09:24:00.560Z,45.60
2023-03-06T09:26:43.323Z,45.10
2023-03-06T09:29:12.784Z,46.58
2023-03-06T09:31:40.631Z,45.88
2023-03-06T09:34:08.376Z,46.52
2023-03-06T09:36:53.329Z,46.87
2023-03-06T09:39:25.424Z,47.96
2023-03-06T09:41:54.298Z,48.57
2023-03-06T09:44:26.011Z,47.72
2023-03-06T09:47:23.052Z,47.21
2023-03-06T09:50:15.835Z,47.05
2023-03-06T09:52:54.404Z,46.23
2023-03-06T09:55:27.415Z,47.01
2023-03-06T09:57:59.835Z,47.48
2023-03-06T10:00:31.789Z,46.52
2023-03-06T10:03:15.833Z,44.55
2023-03-06T10:05:48.258Z,43.88
2023-03-06T10:08:24.732Z,46.63
2023-03-06T10:11:01.033Z,46.13
2023-03-06T10:13:37.675Z,45.10
2023-03-06T10:16:20.229Z,45.69
2023-03-06T10:18:48.215Z,45.16
2023-03-06T10:21:31.218Z,45.86
2023-03-06T10:24:10.525Z,47.05
2023-03-06T10:26:46.614Z,45.53
2023-03-06T10:29:32.041Z,46.01
2023-03-06T10:32:10.252Z,45.24
2023-03-06T10:34:40.347Z,46.10
2023-03-06T10:37:18.985Z,45.22
2023-03-06T10:39:47.343Z,45.65
2023-03-06T10:42:16.482Z,44.90
2023-03-06T10:44:44.270Z,45.78
2023-03-06T10:47:28.625Z,44.18
2023-03-06T10:50:01.117Z,45.21
2023-03-06T10:52:31.641Z,44.01
2023-03-06T10:55:26.308Z,45.71
2023-03-06T10:57:55.588Z,44.78
2023-03-06T11:00:35.963Z,46.09
2023-03-06T11:03:23.659Z,45.01
2023-03-06T11:05:57.678Z,45.46
2023-03-06T11:08:25.432Z,45.09
2023-03-06T11:10:58.129Z,44.63
2023-03-06T11:13:30.554Z,44.33
2023-03-06T11:16:01.792Z,42.87
2023-03-06T11:18:35.338Z,43.69
2023-03-06T11:21:23.654Z,43.51
2023-03-06T11:23:52.494Z,43.89
2023-03-06T11:26:28.550Z,43.79
2023-03-06T11:29:07.575Z,43.69
2023-03-06T11:31:39.378Z,41.17
2023-03-06T11:34:16.053Z,41.95
2023-03-06T11:36:49.725Z,41.53
2023-03-06T11:39:25.581Z,41.55
2023-03-06T11:42:01.100Z,42.33
2023-03-06T11:44:42.976Z,40.99
2023-03-06T11:47:18.370Z,40.60
2023-03-06T11:49:52.135Z,39.45
2023-03-06T11:52:26.327Z,40.21
2023-03-06T11:54:57.177Z,40.16
2023-03-06T11:57:32.120Z,40.34
2023-03-06T12:00:23.701Z,40.38
2023-03-06T12:03:09.285Z,38.55
2023-03-06T12:05:42.736Z,36.94
2023-03-06T12:08:35.958Z,37.06
2023-03-06T12:11:13.150Z,35.77
2023-03-06T12:13:58.969Z,37.45
2023-03-06T12:17:02.025Z,38.00
2023-03-06T12:19:39.742Z,36.66
2023-03-06T12:22:19.822Z,35.78
2023-03-06T12:25:01.868Z,34.87
2023-03-06T12:27:40.721Z,33.42
2023-03-06T12:30:33.347Z,31.66
2023-03-06T12:33:15.462Z,34.02
2023-03-06T12:35:56.648Z,30.81
2023-03-06T12:38:51.646Z,28.00
2023-03-06T12:41:29.517Z,26.68
2023-03-06T12:44:28.155Z,24.12
2023-03-06T12:47:00.285Z,25.44
2023-03-06T12:49:32.908Z,24.53
2023-03-06T12:52:02.261Z,24.99
2023-03-06T12:54:32.379Z,24.05
2023-03-06T12:57:01.631Z,23.85
2023-03-06T12:59:38.411Z,22.20
2023-03-06T13:02:24.121Z,23.06
2023-03-06T13:05:05.799Z,23.98
2023-03-06T13:07:47.118Z,27.78
2023-03-06T13:10:23.549Z,28.79
2023-03-06T13:12:55.980Z,30.57
2023-03-06T13:15:41.933Z,30.16
2023-03-06T13:18:55.724Z,30.62
2023-03-06T13:21:46.833Z,29.83
2023-03-06T13:24:18.743Z,29.72
2023-03-06T13:27:08.950Z,30.54
2023-03-06T13:30:06.161Z,31.53
2023-03-06T13:32:36.169Z,30.38
2023-03-06T13:35:47.424Z,30.38
2023-03-06T13:38:37.112Z,31.79
2023-03-06T13:41:27.877Z,31.22
2023-03-06T13:43:57.706Z,32.17
2023-03-06T13:46:29.738Z,32.21
2023-03-06T13:49:12.341Z,33.50
2023-03-06T13:51:41.890Z,33.18
2023-03-06T13:54:38.192Z,33.06
2023-03-06T13:57:26.274Z,32.38
2023-03-06T14:00:35.521Z,33.08
2023-03-06T14:03:48.077Z,32.00
2023-03-06T14:07:02.312Z,32.15
2023-03-06T14:09:35.567Z,31.13
2023-03-06T14:12:10.400Z,32.34
2023-03-06T14:14:43.089Z,31.49
2023-03-06T14:17:24.369Z,31.19
2023-03-06T14:19:52.576Z,32.12
2023-03-06T14:22:25.714Z,31.12
2023-03-06T14:25:00.783Z,31.35
2023-03-06T14:27:48.878Z,32.56
2023-03-06T14:30:20.887Z,31.67
2023-03-06T14:32:49.860Z,31.92
2023-03-06T14:35:27.545Z,32.08
2023-03-06T14:37:59.367Z,32.39
2023-03-06T14:40:32.765Z,31.37
2023-03-06T14:43:19.205Z,29.67
2023-03-06T14:45:56.008Z,29.82
2023-03-06T14:48:25.692Z,30.64
2023-03-06T14:50:55.465Z,31.84
2023-03-06T14:53:26.964Z,32.05
2023-03-06T14:56:00.074Z,30.72
2023-03-06T14:58:32.205Z,29.89
2023-03-06T15:01:04.124Z,28.52
2023-03-06T15:03:42.569Z,29.26
2023-03-06T15:06:13.038Z,29.14
2023-03-06T15:08:44.458Z,27.34
2023-03-06T15:11:13.683Z,25.99
2023-03-06T15:13:41.606Z,27.32
2023-03-06T15:16:26.954Z,28.13
2023-03-06T15:18:58.143Z,27.81
2023-03-06T15:21:28.483Z,29.37
2023-03-06T15:23:58.260Z,27.43
2023-03-06T15:26:32.928Z,27.46
2023-03-06T15:29:20.434Z,28.11
2023-03-06T15:31:48.236Z,27.08
2023-03-06T15:34:23.607Z,26.79
2023-03-06T15:36:55.217Z,27.33
2023-03-06T15:39:32.111Z,27.00
2023-03-06T15:42:03.640Z,26.84
2023-03-06T15:44:33.821Z,25.93
2023-03-06T15:47:09.391Z,27.70
2023-03-06T15:49:38.400Z,28.01
2023-03-06T15:52:06.451Z,26.24
2023-03-06T15:54:34.237Z,27.60
2023-03-06T15:57:05.056Z,27.81
2023-03-06T15:59:42.464Z,28.00
2023-03-06T16:02:16.366Z,28.65
2023-03-06T16:04:44.617Z,30.01
2023-03-06T16:07:12.420Z,30.80
2023-03-06T16:09:41.237Z,31.13
2023-03-06T16:12:16.434Z,31.57
2023-03-06T16:14:44.551Z,32.75
2023-03-06T16:17:13.302Z,33.12
2023-03-06T16:19:41.636Z,33.06
2023-03-06T16:22:09.466Z,33.34
2023-03-06T16:24:37.259Z,32.79
2023-03-06T16:27:05.325Z,33.40
2023-03-06T16:29:35.102Z,34.87
2023-03-06T16:32:03.082Z,34.57
2023-03-06T16:34:30.907Z,35.88
2023-03-06T16:36:58.753Z,36.16
2023-03-06T16:39:26.494Z,35.73
2023-03-06T16:41:54.445Z,36.59
2023-03-06T16:44:22.389Z,37.61
2023-03-06T16:46:51.596Z,36.90
2023-03-06T16:49:21.100Z,38.26
2023-03-06T16:51:49.877Z,37.12
2023-03-06T16:54:18.050Z,38.24
2023-03-06T16:56:46.434Z,37.13
2023-03-06T16:59:14.712Z,37.58
2023-03-06T17:01:43.638Z,38.33
2023-03-06T17:04:13.109Z,37.94
2023-03-06T17:06:41.705Z,39.10
2023-03-06T17:09:10.734Z,38.43
2023-03-06T17:11:39.507Z,37.25
2023-03-06T17:14:07.797Z,39.02
2023-03-06T17:16:37.048Z,38.95
2023-03-06T17:19:05.032Z,38.85
2023-03-06T17:21:35.403Z,38.08
2023-03-06T17:24:03.892Z,38.38
2023-03-06T17:26:31.746Z,38.70
2023-03-06T17:29:00.005Z,40.10
2023-03-06T17:31:28.684Z,38.73
2023-03-06T17:34:00.416Z,39.00
2023-03-06T17:36:28.722Z,38.54
2023-03-06T17:38:59.047Z,38.38
2023-03-06T17:41:27.684Z,38.89
2023-03-06T17:43:58.205Z,39.28
2023-03-06T17:46:26.393Z,39.12
2023-03-06T17:48:54.320Z,39.14
2023-03-06T17:51:22.094Z,38.62
2023-03-06T17:53:52.119Z,38.72
2023-03-06T17:56:21.748Z,38.34
2023-03-06T17:58:49.571Z,38.57
2023-03-06T18:01:19.400Z,40.06
2023-03-06T18:03:49.015Z,39.94
2023-03-06T18:06:17.642Z,39.87
2023-03-06T18:08:45.794Z,40.13
2023-03-06T18:11:14.286Z,40.78
2023-03-06T18:13:46.363Z,40.52
2023-03-06T18:16:16.550Z,39.82
2023-03-06T18:18:45.033Z,40.16
2023-03-06T18:21:14.789Z,39.78
2023-03-06T18:23:42.819Z,38.51
2023-03-06T18:26:12.690Z,38.71
2023-03-06T18:28:42.550Z,38.52
2023-03-06T18:31:17.210Z,41.37
2023-03-06T18:33:45.353Z,40.88
2023-03-06T18:36:13.291Z,38.84
2023-03-06T18:38:43.889Z,39.81
2023-03-06T18:41:12.449Z,39.83
2023-03-06T18:43:40.829Z,39.86
2023-03-06T18:46:08.635Z,39.97
2023-03-06T18:48:38.541Z,40.68
2023-03-06T18:51:07.843Z,39.70
2023-03-06T18:53:36.212Z,39.13
2023-03-06T18:56:04.758Z,41.30
2023-03-06T18:58:32.540Z,40.72
2023-03-06T19:01:02.144Z,40.54
2023-03-06T19:03:29.979Z,42.82
2023-03-06T19:05:59.634Z,41.87
2023-03-06T19:08:27.632Z,42.81
2023-03-06T19:10:56.320Z,41.63
2023-03-06T19:13:24.163Z,41.07
2023-03-06T19:15:56.601Z,42.02
2023-03-06T19:18:26.151Z,43.77
2023-03-06T19:20:54.668Z,42.64
2023-03-06T19:23:24.309Z,42.29
2023-03-06T19:25:58.527Z,41.89
2023-03-06T19:28:26.621Z,40.84
2023-03-06T19:30:54.415Z,41.32
2023-03-06T19:33:22.550Z,42.47
2023-03-06T19:35:50.356Z,41.51
2023-03-06T19:38:18.154Z,41.78
2023-03-06T19:40:50.938Z,42.34
2023-03-06T19:43:18.742Z,43.23
2023-03-06T19:45:46.695Z,41.50
2023-03-06T19:48:14.502Z,41.76
2023-03-06T19:50:44.767Z,44.24
2023-03-06T19:53:12.534Z,43.46
2023-03-06T19:55:40.890Z,44.41
2023-03-06T19:58:11.146Z,44.40
2023-03-06T20:00:39.382Z,44.59
2023-03-06T20:03:07.234Z,44.81
2023-03-06T20:05:35.255Z,45.36
2023-03-06T20:08:03.084Z,44.15
2023-03-06T20:10:30.983Z,44.47
2023-03-06T20:12:58.787Z,44.44
2023-03-06T20:15:28.724Z,43.90
2023-03-06T20:17:56.873Z,45.45
2023-03-06T20:20:24.714Z,44.48
2023-03-06T20:22:52.498Z,43.77
2023-03-06T20:25:20.395Z,45.13
2023-03-06T20:27:48.174Z,45.59
2023-03-06T20:30:17.079Z,45.01
2023-03-06T20:32:46.184Z,44.51
2023-03-06T20:35:13.968Z,44.21
2023-03-06T20:37:41.795Z,45.64
2023-03-06T20:40:11.058Z,45.21
2023-03-06T20:42:39.024Z,44.93
2023-03-06T20:45:08.152Z,44.32
2023-03-06T20:47:35.914Z,43.92
2023-03-06T20:50:05.547Z,42.96
2023-03-06T20:52:33.981Z,43.95
2023-03-06T20:55:01.793Z,44.17
2023-03-06T20:57:29.532Z,44.77
2023-03-06T20:59:57.324Z,43.85
2023-03-06T21:02:25.159Z,44.79
2023-03-06T21:04:52.918Z,44.43
2023-03-06T21:07:22.395Z,44.01
2023-03-06T21:09:51.689Z,45.34
2023-03-06T21:12:19.599Z,44.81
2023-03-06T21:14:47.395Z,44.57
2023-03-06T21:17:15.104Z,44.58
2023-03-06T21:19:43.031Z,45.48
2023-03-06T21:22:10.790Z,45.52
2023-03-06T21:24:39.947Z,44.87
2023-03-06T21:27:07.711Z,45.21
2023-03-06T21:29:35.546Z,43.69
2023-03-06T21:32:03.699Z,43.60
2023-03-06T21:34:31.547Z,43.32
2023-03-06T21:36:59.419Z,45.25
2023-03-06T21:39:27.406Z,44.72
2023-03-06T21:41:56.510Z,46.07
2023-03-06T21:44:24.325Z,46.00
2023-03-06T21:46:52.052Z,45.80
2023-03-06T21:49:25.959Z,44.34
2023-03-06T21:51:54.900Z,45.62
2023-03-06T21:54:22.880Z,44.65
2023-03-06T21:56:50.622Z,45.78
2023-03-06T21:59:19.809Z,45.02
2023-03-06T22:01:47.634Z,45.81
2023-03-06T22:04:15.618Z,45.08
2023-03-06T22:06:44.663Z,45.91
2023-03-06T22:09:14.948Z,47.24
2023-03-06T22:11:43.078Z,46.53
2023-03-06T22:14:10.836Z,46.72
2023-03-06T22:16:39.975Z,45.01
2023-03-06T22:19:08.307Z,45.76
2023-03-06T22:21:36.158Z,46.96
2023-03-06T22:24:04.525Z,48.63
2023-03-06T22:26:32.363Z,47.60
2023-03-06T22:29:00.156Z,47.71
2023-03-06T22:31:29.417Z,47.74
2023-03-06T22:34:00.179Z,47.40
2023-03-06T22:36:30.269Z,47.49
2023-03-06T22:39:00.111Z,48.02
2023-03-06T22:41:28.741Z,48.49
2023-03-06T22:43:57.222Z,46.78
2023-03-06T22:46:25.588Z,47.61
2023-03-06T22:48:53.448Z,47.61
2023-03-06T22:51:22.661Z,48.49
2023-03-06T22:53:50.743Z,48.22
2023-03-06T22:56:21.033Z,46.87
2023-03-06T22:58:49.496Z,48.69
2023-03-06T23:01:18.885Z,48.50
2023-03-06T23:03:48.419Z,48.67
2023-03-06T23:06:18.242Z,47.73
2023-03-06T23:08:51.073Z,47.03
2023-03-06T23:11:19.952Z,47.59
2023-03-06T23:14:06.714Z,48.30
2023-03-06T23:16:52.925Z,48.04
2023-03-06T23:19:39.590Z,48.01
2023-03-06T23:22:25.892Z,48.13
2023-03-06T23:25:13.754Z,48.73
2023-03-06T23:27:41.615Z,48.41
2023-03-06T23:30:11.281Z,48.65
2023-03-06T23:32:39.125Z,48.42
2023-03-06T23:35:07.660Z,48.61
2023-03-06T23:37:35.438Z,48.35
2023-03-06T23:40:03.403Z,49.04
2023-03-06T23:42:33.891Z,49.55
2023-03-06T23:45:02.496Z,48.41
2023-03-06T23:47:32.810Z,48.89
2023-03-06T23:50:00.708Z,49.83
2023-03-06T23:52:28.560Z,50.91
2023-03-06T23:54:56.362Z,50.23
2023-03-06T23:57:24.140Z,49.40
2023-03-06T23:59:53.352Z,49.85
